sensor_id;sensor_type;location;lat;lon;timestamp;P1;durP1;ratioP1;P2;durP2;ratioP2
18647;SDS011;9453;50.294;18.644;2023-01-28T05:01:18;16.37;;;7.00;;
18647;SDS011;9453;50.294;18.644;2023-01-28T05:03:45;17.17;;;7.40;;
18647;SDS011;9453;50.294;18.644;2023-01-28T05:06:12;16.07;;;6.63;;
18647;SDS011;9453;50.294;18.644;2023-01-28T05:08:39;16.07;;;7.03;;
18647;SDS011;9453;50.294;18.644;2023-01-28T05:11:06;15.77;;;6.93;;
18647;SDS011;9453;50.294;18.644;2023-01-28T05:13:33;15.67;;;6.57;;
18647;SDS011;9453;50.294;18.644;2023-01-28T05:16:00;17.77;;;7.37;;
18647;SDS011;9453;50.294;18.644;2023-01-28T05:18:28;14.53;;;6.10;;
18647;SDS011;9453;50.294;18.644;2023-01-28T05:20:55;16.60;;;7.37;;
18647;SDS011;9453;50.294;18.644;2023-01-28T05:23:23;18.73;;;7.00;;
18647;SDS011;9453;50.294;18.644;2023-01-28T05:25:50;14.43;;;6.37;;
18647;SDS011;9453;50.294;18.644;2023-01-28T05:28:17;17.43;;;6.93;;
18647;SDS011;9453;50.294;18.644;2023-01-28T05:30:43;17.17;;;7.27;;
18647;SDS011;9453;50.294;18.644;2023-01-28T05:33:10;17.53;;;7.70;;
18647;SDS011;9453;50.294;18.644;2023-01-28T05:35:39;18.83;;;7.33;;
18647;SDS011;9453;50.294;18.644;2023-01-28T05:38:08;15.00;;;7.20;;
18647;SDS011;9453;50.294;18.644;2023-01-28T05:40:35;21.23;;;7.17;;
18647;SDS011;9453;50.294;18.644;2023-01-28T05:43:02;20.50;;;6.93;;
18647;SDS011;9453;50.294;18.644;2023-01-28T05:45:30;15.23;;;7.00;;
18647;SDS011;9453;50.294;18.644;2023-01-28T05:47:57;22.20;;;7.27;;
18647;SDS011;9453;50.294;18.644;2023-01-28T05:50:24;22.17;;;8.07;;
18647;SDS011;9453;50.294;18.644;2023-01-28T05:52:52;21.17;;;7.97;;
18647;SDS011;9453;50.294;18.644;2023-01-28T05:55:20;26.97;;;8.80;;
18647;SDS011;9453;50.294;18.644;2023-01-28T05:57:47;23.90;;;9.90;;
18647;SDS011;9453;50.294;18.644;2023-01-28T06:00:14;26.43;;;9.27;;
18647;SDS011;9453;50.294;18.644;2023-01-28T06:02:42;25.10;;;10.10;;
18647;SDS011;9453;50.294;18.644;2023-01-28T06:05:09;27.97;;;9.43;;
18647;SDS011;9453;50.294;18.644;2023-01-28T06:07:36;26.00;;;10.53;;
18647;SDS011;9453;50.294;18.644;2023-01-28T06:10:06;25.37;;;10.37;;
18647;SDS011;9453;50.294;18.644;2023-01-28T06:12:33;25.10;;;10.70;;
18647;SDS011;9453;50.294;18.644;2023-01-28T06:15:01;24.63;;;10.10;;
18647;SDS011;9453;50.294;18.644;2023-01-28T06:17:29;31.07;;;11.63;;
18647;SDS011;9453;50.294;18.644;2023-01-28T06:19:56;25.90;;;10.53;;
18647;SDS011;9453;50.294;18.644;2023-01-28T06:22:23;27.53;;;9.50;;
18647;SDS011;9453;50.294;18.644;2023-01-28T06:24:50;28.63;;;9.80;;
18647;SDS011;9453;50.294;18.644;2023-01-28T06:27:19;30.40;;;11.17;;
18647;SDS011;9453;50.294;18.644;2023-01-28T06:29:45;24.07;;;10.07;;
18647;SDS011;9453;50.294;18.644;2023-01-28T06:32:13;23.03;;;9.40;;
18647;SDS011;9453;50.294;18.644;2023-01-28T06:34:40;28.07;;;9.50;;
18647;SDS011;9453;50.294;18.644;2023-01-28T06:37:07;24.33;;;9.97;;
18647;SDS011;9453;50.294;18.644;2023-01-28T06:39:34;25.43;;;9.27;;
18647;SDS011;9453;50.294;18.644;2023-01-28T06:42:01;21.63;;;8.60;;
18647;SDS011;9453;50.294;18.644;2023-01-28T06:44:30;20.77;;;8.30;;
18647;SDS011;9453;50.294;18.644;2023-01-28T06:46:56;22.83;;;8.33;;
18647;SDS011;9453;50.294;18.644;2023-01-28T06:49:23;20.97;;;7.93;;
18647;SDS011;9453;50.294;18.644;2023-01-28T06:51:50;22.87;;;8.43;;
18647;SDS011;9453;50.294;18.644;2023-01-28T06:54:17;23.80;;;9.00;;
18647;SDS011;9453;50.294;18.644;2023-01-28T06:56:44;23.77;;;8.60;;
18647;SDS011;9453;50.294;18.644;2023-01-28T06:59:11;27.40;;;9.23;;
18647;SDS011;9453;50.294;18.644;2023-01-28T07:01:40;22.20;;;7.63;;
18647;SDS011;9453;50.294;18.644;2023-01-28T07:04:07;21.90;;;8.53;;
18647;SDS011;9453;50.294;18.644;2023-01-28T07:06:34;18.93;;;8.37;;
18647;SDS011;9453;50.294;18.644;2023-01-28T07:09:01;20.17;;;8.43;;
18647;SDS011;9453;50.294;18.644;2023-01-28T07:11:28;19.60;;;7.87;;
18647;SDS011;9453;50.294;18.644;2023-01-28T07:13:55;24.00;;;9.27;;
18647;SDS011;9453;50.294;18.644;2023-01-28T07:16:22;21.17;;;8.80;;
18647;SDS011;9453;50.294;18.644;2023-01-28T07:18:50;27.37;;;9.97;;
18647;SDS011;9453;50.294;18.644;2023-01-28T07:21:17;28.70;;;10.27;;
18647;SDS011;9453;50.294;18.644;2023-01-28T07:23:44;26.97;;;9.40;;
18647;SDS011;9453;50.294;18.644;2023-01-28T07:26:11;26.67;;;9.27;;
18647;SDS011;9453;50.294;18.644;2023-01-28T07:28:39;26.27;;;8.43;;
18647;SDS011;9453;50.294;18.644;2023-01-28T07:31:06;20.27;;;8.80;;
18647;SDS011;9453;50.294;18.644;2023-01-28T07:33:33;22.40;;;8.27;;
18647;SDS011;9453;50.294;18.644;2023-01-28T07:36:02;22.10;;;8.97;;
18647;SDS011;9453;50.294;18.644;2023-01-28T07:38:30;20.60;;;8.03;;
18647;SDS011;9453;50.294;18.644;2023-01-28T07:41:07;20.97;;;8.00;;
18647;SDS011;9453;50.294;18.644;2023-01-28T07:46:21;20.60;;;8.00;;
18647;SDS011;9453;50.294;18.644;2023-01-28T07:48:48;29.93;;;8.83;;
18647;SDS011;9453;50.294;18.644;2023-01-28T07:51:16;26.87;;;8.70;;
18647;SDS011;9453;50.294;18.644;2023-01-28T07:53:43;24.27;;;8.27;;
18647;SDS011;9453;50.294;18.644;2023-01-28T07:56:10;22.03;;;8.50;;
18647;SDS011;9453;50.294;18.644;2023-01-28T07:58:37;18.20;;;7.87;;
18647;SDS011;9453;50.294;18.644;2023-01-28T08:01:04;18.97;;;7.30;;
18647;SDS011;9453;50.294;18.644;2023-01-28T08:03:31;22.63;;;8.17;;
18647;SDS011;9453;50.294;18.644;2023-01-28T08:05:59;21.03;;;8.80;;
18647;SDS011;9453;50.294;18.644;2023-01-28T08:08:28;25.13;;;8.70;;
18647;SDS011;9453;50.294;18.644;2023-01-28T08:10:55;20.00;;;7.87;;
18647;SDS011;9453;50.294;18.644;2023-01-28T08:13:22;23.23;;;9.43;;
18647;SDS011;9453;50.294;18.644;2023-01-28T08:15:53;20.43;;;8.60;;
18647;SDS011;9453;50.294;18.644;2023-01-28T08:18:20;22.10;;;8.67;;
18647;SDS011;9453;50.294;18.644;2023-01-28T08:20:47;20.37;;;8.70;;
18647;SDS011;9453;50.294;18.644;2023-01-28T08:23:15;21.90;;;8.77;;
18647;SDS011;9453;50.294;18.644;2023-01-28T08:25:46;23.17;;;8.40;;
18647;SDS011;9453;50.294;18.644;2023-01-28T08:28:14;20.17;;;8.13;;
18647;SDS011;9453;50.294;18.644;2023-01-28T08:30:42;22.87;;;9.00;;
18647;SDS011;9453;50.294;18.644;2023-01-28T08:33:10;21.33;;;8.53;;
18647;SDS011;9453;50.294;18.644;2023-01-28T08:35:39;19.50;;;8.33;;
18647;SDS011;9453;50.294;18.644;2023-01-28T08:38:06;30.80;;;9.13;;
18647;SDS011;9453;50.294;18.644;2023-01-28T08:40:34;23.13;;;8.90;;
18647;SDS011;9453;50.294;18.644;2023-01-28T08:43:03;19.67;;;7.87;;
18647;SDS011;9453;50.294;18.644;2023-01-28T08:45:30;24.40;;;8.80;;
18647;SDS011;9453;50.294;18.644;2023-01-28T08:47:58;20.87;;;8.57;;
18647;SDS011;9453;50.294;18.644;2023-01-28T08:50:27;18.23;;;8.03;;
18647;SDS011;9453;50.294;18.644;2023-01-28T08:52:57;22.30;;;8.77;;
18647;SDS011;9453;50.294;18.644;2023-01-28T08:55:27;19.03;;;8.63;;
18647;SDS011;9453;50.294;18.644;2023-01-28T08:57:55;25.60;;;8.33;;
18647;SDS011;9453;50.294;18.644;2023-01-28T09:00:24;19.30;;;7.23;;
18647;SDS011;9453;50.294;18.644;2023-01-28T09:02:52;22.03;;;6.93;;
18647;SDS011;9453;50.294;18.644;2023-01-28T09:05:19;21.10;;;7.97;;
18647;SDS011;9453;50.294;18.644;2023-01-28T09:07:47;22.07;;;7.67;;
18647;SDS011;9453;50.294;18.644;2023-01-28T09:10:15;17.37;;;7.13;;
18647;SDS011;9453;50.294;18.644;2023-01-28T09:15:46;19.50;;;7.37;;
18647;SDS011;9453;50.294;18.644;2023-01-28T09:18:13;16.70;;;6.67;;
18647;SDS011;9453;50.294;18.644;2023-01-28T09:20:39;20.50;;;7.60;;
18647;SDS011;9453;50.294;18.644;2023-01-28T09:23:06;16.63;;;6.67;;
18647;SDS011;9453;50.294;18.644;2023-01-28T09:25:34;14.93;;;6.37;;
18647;SDS011;9453;50.294;18.644;2023-01-28T09:28:02;18.53;;;7.37;;
18647;SDS011;9453;50.294;18.644;2023-01-28T09:30:29;27.20;;;9.07;;
18647;SDS011;9453;50.294;18.644;2023-01-28T09:32:59;20.70;;;7.37;;
18647;SDS011;9453;50.294;18.644;2023-01-28T09:35:26;18.67;;;7.03;;
18647;SDS011;9453;50.294;18.644;2023-01-28T09:37:55;21.37;;;7.47;;
18647;SDS011;9453;50.294;18.644;2023-01-28T09:40:29;19.73;;;7.63;;
18647;SDS011;9453;50.294;18.644;2023-01-28T09:43:16;14.83;;;6.97;;
18647;SDS011;9453;50.294;18.644;2023-01-28T09:46:02;19.20;;;7.13;;
18647;SDS011;9453;50.294;18.644;2023-01-28T09:48:33;20.27;;;7.17;;
18647;SDS011;9453;50.294;18.644;2023-01-28T09:51:06;20.13;;;8.30;;
18647;SDS011;9453;50.294;18.644;2023-01-28T09:53:35;19.87;;;7.87;;
18647;SDS011;9453;50.294;18.644;2023-01-28T09:56:10;17.83;;;6.90;;
18647;SDS011;9453;50.294;18.644;2023-01-28T09:58:50;18.87;;;8.07;;
18647;SDS011;9453;50.294;18.644;2023-01-28T10:01:23;20.93;;;7.70;;
18647;SDS011;9453;50.294;18.644;2023-01-28T10:04:04;15.37;;;6.80;;
18647;SDS011;9453;50.294;18.644;2023-01-28T10:06:42;19.37;;;7.73;;
18647;SDS011;9453;50.294;18.644;2023-01-28T10:09:18;18.77;;;7.87;;
18647;SDS011;9453;50.294;18.644;2023-01-28T10:12:02;19.30;;;8.07;;
18647;SDS011;9453;50.294;18.644;2023-01-28T10:14:44;16.20;;;6.80;;
18647;SDS011;9453;50.294;18.644;2023-01-28T10:17:20;16.70;;;7.50;;
18647;SDS011;9453;50.294;18.644;2023-01-28T10:19:54;21.27;;;7.60;;
18647;SDS011;9453;50.294;18.644;2023-01-28T10:22:26;21.43;;;7.83;;
18647;SDS011;9453;50.294;18.644;2023-01-28T10:24:57;17.17;;;7.80;;
18647;SDS011;9453;50.294;18.644;2023-01-28T10:27:31;17.30;;;7.53;;
18647;SDS011;9453;50.294;18.644;2023-01-28T10:29:59;23.30;;;9.20;;
18647;SDS011;9453;50.294;18.644;2023-01-28T10:32:42;20.47;;;8.10;;
18647;SDS011;9453;50.294;18.644;2023-01-28T10:35:16;16.40;;;7.00;;
18647;SDS011;9453;50.294;18.644;2023-01-28T10:37:44;18.07;;;7.20;;
18647;SDS011;9453;50.294;18.644;2023-01-28T10:40:20;18.77;;;7.57;;
18647;SDS011;9453;50.294;18.644;2023-01-28T10:42:50;20.23;;;7.33;;
18647;SDS011;9453;50.294;18.644;2023-01-28T10:45:18;20.63;;;7.40;;
18647;SDS011;9453;50.294;18.644;2023-01-28T10:47:47;18.30;;;6.47;;
18647;SDS011;9453;50.294;18.644;2023-01-28T10:50:21;16.40;;;6.18;;
18647;SDS011;9453;50.294;18.644;2023-01-28T10:52:51;19.80;;;7.20;;
18647;SDS011;9453;50.294;18.644;2023-01-28T10:55:19;15.83;;;6.60;;
18647;SDS011;9453;50.294;18.644;2023-01-28T10:57:47;15.27;;;6.97;;
18647;SDS011;9453;50.294;18.644;2023-01-28T11:00:21;20.03;;;7.60;;
18647;SDS011;9453;50.294;18.644;2023-01-28T11:02:51;17.37;;;6.73;;
18647;SDS011;9453;50.294;18.644;2023-01-28T11:05:21;20.97;;;7.70;;
18647;SDS011;9453;50.294;18.644;2023-01-28T11:08:01;16.03;;;6.70;;
18647;SDS011;9453;50.294;18.644;2023-01-28T11:10:31;14.07;;;6.00;;
18647;SDS011;9453;50.294;18.644;2023-01-28T11:13:00;14.63;;;6.63;;
18647;SDS011;9453;50.294;18.644;2023-01-28T11:15:28;16.57;;;6.50;;
18647;SDS011;9453;50.294;18.644;2023-01-28T11:17:56;15.70;;;6.60;;
18647;SDS011;9453;50.294;18.644;2023-01-28T11:20:29;16.37;;;6.27;;
18647;SDS011;9453;50.294;18.644;2023-01-28T11:23:01;17.87;;;6.83;;
18647;SDS011;9453;50.294;18.644;2023-01-28T11:25:29;15.23;;;6.70;;
18647;SDS011;9453;50.294;18.644;2023-01-28T11:27:58;19.43;;;7.10;;
18647;SDS011;9453;50.294;18.644;2023-01-28T11:30:28;15.23;;;6.97;;
18647;SDS011;9453;50.294;18.644;2023-01-28T11:32:59;14.13;;;6.43;;
18647;SDS011;9453;50.294;18.644;2023-01-28T11:35:32;15.50;;;6.07;;
18647;SDS011;9453;50.294;18.644;2023-01-28T11:37:59;16.20;;;6.00;;
18647;SDS011;9453;50.294;18.644;2023-01-28T11:40:27;13.10;;;6.07;;
18647;SDS011;9453;50.294;18.644;2023-01-28T11:42:54;16.20;;;6.47;;
18647;SDS011;9453;50.294;18.644;2023-01-28T11:45:24;18.40;;;7.35;;
18647;SDS011;9453;50.294;18.644;2023-01-28T11:48:02;24.50;;;7.40;;
18647;SDS011;9453;50.294;18.644;2023-01-28T11:56:11;17.27;;;6.47;;
18647;SDS011;9453;50.294;18.644;2023-01-28T11:58:49;15.73;;;6.70;;
18647;SDS011;9453;50.294;18.644;2023-01-28T12:01:23;17.23;;;6.50;;
18647;SDS011;9453;50.294;18.644;2023-01-28T12:04:15;18.77;;;7.00;;
18647;SDS011;9453;50.294;18.644;2023-01-28T12:06:52;16.53;;;7.17;;
18647;SDS011;9453;50.294;18.644;2023-01-28T12:09:37;16.07;;;6.87;;
18647;SDS011;9453;50.294;18.644;2023-01-28T12:15:16;17.57;;;7.47;;
18647;SDS011;9453;50.294;18.644;2023-01-28T12:18:01;21.20;;;8.30;;
18647;SDS011;9453;50.294;18.644;2023-01-28T12:20:40;19.37;;;7.77;;
18647;SDS011;9453;50.294;18.644;2023-01-28T12:23:20;21.67;;;8.70;;
18647;SDS011;9453;50.294;18.644;2023-01-28T12:26:00;23.00;;;7.97;;
18647;SDS011;9453;50.294;18.644;2023-01-28T12:28:43;22.40;;;8.27;;
18647;SDS011;9453;50.294;18.644;2023-01-28T12:31:30;22.73;;;9.30;;
18647;SDS011;9453;50.294;18.644;2023-01-28T12:34:28;23.67;;;9.37;;
18647;SDS011;9453;50.294;18.644;2023-01-28T12:37:07;24.90;;;9.30;;
18647;SDS011;9453;50.294;18.644;2023-01-28T12:39:44;24.37;;;9.13;;
18647;SDS011;9453;50.294;18.644;2023-01-28T12:42:21;22.87;;;9.03;;
18647;SDS011;9453;50.294;18.644;2023-01-28T12:45:01;19.70;;;8.87;;
18647;SDS011;9453;50.294;18.644;2023-01-28T12:47:40;24.03;;;9.93;;
18647;SDS011;9453;50.294;18.644;2023-01-28T12:50:12;24.27;;;9.13;;
18647;SDS011;9453;50.294;18.644;2023-01-28T12:52:43;22.07;;;9.03;;
18647;SDS011;9453;50.294;18.644;2023-01-28T12:55:14;23.67;;;9.17;;
18647;SDS011;9453;50.294;18.644;2023-01-28T12:57:43;23.77;;;8.70;;
18647;SDS011;9453;50.294;18.644;2023-01-28T13:03:01;26.90;;;9.60;;
18647;SDS011;9453;50.294;18.644;2023-01-28T13:05:36;24.37;;;9.63;;
18647;SDS011;9453;50.294;18.644;2023-01-28T13:08:09;27.07;;;9.70;;
18647;SDS011;9453;50.294;18.644;2023-01-28T13:10:41;22.73;;;9.73;;
18647;SDS011;9453;50.294;18.644;2023-01-28T13:13:12;21.17;;;8.33;;
18647;SDS011;9453;50.294;18.644;2023-01-28T13:15:45;20.70;;;8.90;;
18647;SDS011;9453;50.294;18.644;2023-01-28T13:18:28;25.03;;;10.03;;
18647;SDS011;9453;50.294;18.644;2023-01-28T13:20:58;24.60;;;9.93;;
18647;SDS011;9453;50.294;18.644;2023-01-28T13:23:27;21.67;;;9.07;;
18647;SDS011;9453;50.294;18.644;2023-01-28T13:26:08;25.13;;;9.63;;
18647;SDS011;9453;50.294;18.644;2023-01-28T13:28:37;28.67;;;10.43;;
18647;SDS011;9453;50.294;18.644;2023-01-28T13:31:07;27.67;;;9.87;;
18647;SDS011;9453;50.294;18.644;2023-01-28T13:33:39;29.37;;;11.40;;
18647;SDS011;9453;50.294;18.644;2023-01-28T13:36:21;27.13;;;9.90;;
18647;SDS011;9453;50.294;18.644;2023-01-28T13:39:00;25.97;;;10.33;;
18647;SDS011;9453;50.294;18.644;2023-01-28T13:41:37;30.63;;;9.57;;
18647;SDS011;9453;50.294;18.644;2023-01-28T13:44:15;30.63;;;9.83;;
18647;SDS011;9453;50.294;18.644;2023-01-28T13:46:45;24.33;;;9.30;;
18647;SDS011;9453;50.294;18.644;2023-01-28T13:49:14;27.53;;;10.37;;
18647;SDS011;9453;50.294;18.644;2023-01-28T13:51:49;27.13;;;9.03;;
18647;SDS011;9453;50.294;18.644;2023-01-28T13:54:24;30.17;;;11.10;;
18647;SDS011;9453;50.294;18.644;2023-01-28T13:57:00;29.83;;;12.23;;
18647;SDS011;9453;50.294;18.644;2023-01-28T13:59:42;36.97;;;12.47;;
18647;SDS011;9453;50.294;18.644;2023-01-28T14:02:24;32.70;;;12.63;;
18647;SDS011;9453;50.294;18.644;2023-01-28T14:11:09;39.10;;;13.93;;
18647;SDS011;9453;50.294;18.644;2023-01-28T14:16:57;37.87;;;14.00;;
18647;SDS011;9453;50.294;18.644;2023-01-28T14:19:31;31.00;;;12.20;;
18647;SDS011;9453;50.294;18.644;2023-01-28T14:22:05;43.90;;;16.17;;
18647;SDS011;9453;50.294;18.644;2023-01-28T14:24:32;38.63;;;13.60;;
18647;SDS011;9453;50.294;18.644;2023-01-28T14:27:03;39.27;;;15.67;;
18647;SDS011;9453;50.294;18.644;2023-01-28T14:29:40;40.93;;;13.60;;
18647;SDS011;9453;50.294;18.644;2023-01-28T14:32:14;40.67;;;14.67;;
18647;SDS011;9453;50.294;18.644;2023-01-28T14:34:45;38.80;;;14.43;;
18647;SDS011;9453;50.294;18.644;2023-01-28T14:37:14;42.33;;;14.80;;
18647;SDS011;9453;50.294;18.644;2023-01-28T14:39:47;40.70;;;13.73;;
18647;SDS011;9453;50.294;18.644;2023-01-28T14:42:19;39.67;;;13.30;;
18647;SDS011;9453;50.294;18.644;2023-01-28T14:44:49;33.90;;;13.57;;
18647;SDS011;9453;50.294;18.644;2023-01-28T14:47:37;41.33;;;14.20;;
18647;SDS011;9453;50.294;18.644;2023-01-28T14:50:28;40.10;;;14.03;;
18647;SDS011;9453;50.294;18.644;2023-01-28T14:53:12;40.67;;;14.50;;
18647;SDS011;9453;50.294;18.644;2023-01-28T14:55:49;42.17;;;14.27;;
18647;SDS011;9453;50.294;18.644;2023-01-28T14:58:23;39.10;;;13.40;;
18647;SDS011;9453;50.294;18.644;2023-01-28T15:00:53;34.87;;;13.53;;
18647;SDS011;9453;50.294;18.644;2023-01-28T15:03:23;43.50;;;14.00;;
18647;SDS011;9453;50.294;18.644;2023-01-28T15:06:06;39.77;;;14.90;;
18647;SDS011;9453;50.294;18.644;2023-01-28T15:08:39;36.93;;;15.00;;
18647;SDS011;9453;50.294;18.644;2023-01-28T15:11:07;39.40;;;14.70;;
18647;SDS011;9453;50.294;18.644;2023-01-28T15:13:37;41.67;;;15.67;;
18647;SDS011;9453;50.294;18.644;2023-01-28T15:16:11;41.73;;;14.87;;
18647;SDS011;9453;50.294;18.644;2023-01-28T15:18:45;41.13;;;14.20;;
18647;SDS011;9453;50.294;18.644;2023-01-28T15:21:18;49.13;;;16.53;;
18647;SDS011;9453;50.294;18.644;2023-01-28T15:23:47;42.00;;;16.13;;
18647;SDS011;9453;50.294;18.644;2023-01-28T15:26:18;41.43;;;15.20;;
18647;SDS011;9453;50.294;18.644;2023-01-28T15:28:47;43.27;;;16.43;;
18647;SDS011;9453;50.294;18.644;2023-01-28T15:31:19;42.60;;;16.63;;
18647;SDS011;9453;50.294;18.644;2023-01-28T15:33:55;50.70;;;17.17;;
18647;SDS011;9453;50.294;18.644;2023-01-28T15:36:25;49.80;;;17.27;;
18647;SDS011;9453;50.294;18.644;2023-01-28T15:38:53;47.13;;;17.13;;
18647;SDS011;9453;50.294;18.644;2023-01-28T15:41:21;50.80;;;17.97;;
18647;SDS011;9453;50.294;18.644;2023-01-28T15:43:52;60.97;;;18.80;;
18647;SDS011;9453;50.294;18.644;2023-01-28T15:46:20;55.47;;;19.27;;
18647;SDS011;9453;50.294;18.644;2023-01-28T15:48:48;46.83;;;17.43;;
18647;SDS011;9453;50.294;18.644;2023-01-28T15:51:25;52.30;;;18.07;;
18647;SDS011;9453;50.294;18.644;2023-01-28T15:53:55;45.07;;;17.47;;
18647;SDS011;9453;50.294;18.644;2023-01-28T15:56:27;55.07;;;17.60;;
18647;SDS011;9453;50.294;18.644;2023-01-28T15:59:06;47.43;;;16.67;;
18647;SDS011;9453;50.294;18.644;2023-01-28T16:01:34;48.33;;;17.27;;
18647;SDS011;9453;50.294;18.644;2023-01-28T16:04:01;48.60;;;17.40;;
18647;SDS011;9453;50.294;18.644;2023-01-28T16:06:33;48.70;;;16.93;;
18647;SDS011;9453;50.294;18.644;2023-01-28T16:09:02;50.10;;;18.17;;
18647;SDS011;9453;50.294;18.644;2023-01-28T16:11:32;48.20;;;17.27;;
18647;SDS011;9453;50.294;18.644;2023-01-28T16:14:02;56.63;;;20.33;;
18647;SDS011;9453;50.294;18.644;2023-01-28T16:16:32;65.27;;;20.03;;
18647;SDS011;9453;50.294;18.644;2023-01-28T16:19:01;58.47;;;20.17;;
18647;SDS011;9453;50.294;18.644;2023-01-28T16:21:34;64.07;;;20.07;;
18647;SDS011;9453;50.294;18.644;2023-01-28T16:24:04;60.57;;;21.33;;
18647;SDS011;9453;50.294;18.644;2023-01-28T16:26:43;58.77;;;20.20;;
18647;SDS011;9453;50.294;18.644;2023-01-28T16:29:21;63.90;;;20.67;;
18647;SDS011;9453;50.294;18.644;2023-01-28T16:31:49;52.03;;;16.97;;
18647;SDS011;9453;50.294;18.644;2023-01-28T16:34:16;49.70;;;18.70;;
18647;SDS011;9453;50.294;18.644;2023-01-28T16:36:44;54.20;;;19.20;;
18647;SDS011;9453;50.294;18.644;2023-01-28T16:39:11;51.57;;;18.60;;
18647;SDS011;9453;50.294;18.644;2023-01-28T16:41:39;53.87;;;18.10;;
18647;SDS011;9453;50.294;18.644;2023-01-28T16:44:09;56.57;;;19.57;;
18647;SDS011;9453;50.294;18.644;2023-01-28T16:46:38;51.87;;;18.60;;
18647;SDS011;9453;50.294;18.644;2023-01-28T16:49:06;50.63;;;17.47;;
18647;SDS011;9453;50.294;18.644;2023-01-28T16:51:33;64.53;;;23.07;;
18647;SDS011;9453;50.294;18.644;2023-01-28T16:54:03;46.10;;;16.70;;
18647;SDS011;9453;50.294;18.644;2023-01-28T16:56:31;45.10;;;16.70;;
18647;SDS011;9453;50.294;18.644;2023-01-28T16:58:59;46.63;;;16.73;;
18647;SDS011;9453;50.294;18.644;2023-01-28T17:01:26;40.37;;;15.30;;
18647;SDS011;9453;50.294;18.644;2023-01-28T17:03:54;55.43;;;19.63;;
18647;SDS011;9453;50.294;18.644;2023-01-28T17:06:21;57.33;;;20.80;;
18647;SDS011;9453;50.294;18.644;2023-01-28T17:08:49;58.80;;;20.70;;
18647;SDS011;9453;50.294;18.644;2023-01-28T17:11:17;57.83;;;20.47;;
18647;SDS011;9453;50.294;18.644;2023-01-28T17:13:44;70.80;;;19.20;;
18647;SDS011;9453;50.294;18.644;2023-01-28T17:16:11;39.13;;;14.47;;
18647;SDS011;9453;50.294;18.644;2023-01-28T17:18:39;39.37;;;15.47;;
18647;SDS011;9453;50.294;18.644;2023-01-28T17:21:05;45.90;;;15.87;;
18647;SDS011;9453;50.294;18.644;2023-01-28T17:23:32;36.23;;;15.10;;
18647;SDS011;9453;50.294;18.644;2023-01-28T17:26:03;37.63;;;14.60;;
18647;SDS011;9453;50.294;18.644;2023-01-28T17:28:32;47.70;;;17.90;;
18647;SDS011;9453;50.294;18.644;2023-01-28T17:31:00;52.57;;;18.53;;
18647;SDS011;9453;50.294;18.644;2023-01-28T17:33:31;59.07;;;20.73;;
18647;SDS011;9453;50.294;18.644;2023-01-28T17:36:01;68.90;;;24.40;;
18647;SDS011;9453;50.294;18.644;2023-01-28T17:38:28;58.97;;;20.30;;
18647;SDS011;9453;50.294;18.644;2023-01-28T17:41:00;48.73;;;17.17;;
18647;SDS011;9453;50.294;18.644;2023-01-28T17:43:28;59.00;;;20.17;;
18647;SDS011;9453;50.294;18.644;2023-01-28T17:45:58;68.73;;;25.30;;
18647;SDS011;9453;50.294;18.644;2023-01-28T17:48:27;56.57;;;19.27;;
18647;SDS011;9453;50.294;18.644;2023-01-28T17:50:55;54.90;;;18.73;;
18647;SDS011;9453;50.294;18.644;2023-01-28T17:53:22;48.97;;;17.00;;
18647;SDS011;9453;50.294;18.644;2023-01-28T17:55:49;54.70;;;18.57;;
18647;SDS011;9453;50.294;18.644;2023-01-28T17:58:17;54.33;;;18.73;;
18647;SDS011;9453;50.294;18.644;2023-01-28T18:00:44;37.07;;;15.00;;
18647;SDS011;9453;50.294;18.644;2023-01-28T18:03:13;40.03;;;15.77;;
18647;SDS011;9453;50.294;18.644;2023-01-28T18:05:41;41.00;;;15.93;;
18647;SDS011;9453;50.294;18.644;2023-01-28T18:08:08;38.23;;;14.73;;
18647;SDS011;9453;50.294;18.644;2023-01-28T18:10:35;33.23;;;13.73;;
18647;SDS011;9453;50.294;18.644;2023-01-28T18:13:03;29.03;;;11.43;;
18647;SDS011;9453;50.294;18.644;2023-01-28T18:15:30;36.30;;;12.90;;
18647;SDS011;9453;50.294;18.644;2023-01-28T18:17:57;41.53;;;14.23;;
18647;SDS011;9453;50.294;18.644;2023-01-28T18:20:26;49.60;;;18.00;;
18647;SDS011;9453;50.294;18.644;2023-01-28T18:22:56;38.30;;;13.37;;
18647;SDS011;9453;50.294;18.644;2023-01-28T18:25:25;27.57;;;12.13;;
18647;SDS011;9453;50.294;18.644;2023-01-28T18:27:52;29.60;;;11.80;;
18647;SDS011;9453;50.294;18.644;2023-01-28T18:30:19;29.10;;;11.67;;
18647;SDS011;9453;50.294;18.644;2023-01-28T18:32:46;31.93;;;11.27;;
18647;SDS011;9453;50.294;18.644;2023-01-28T18:35:14;30.43;;;12.10;;
18647;SDS011;9453;50.294;18.644;2023-01-28T18:37:42;29.10;;;11.40;;
18647;SDS011;9453;50.294;18.644;2023-01-28T18:40:10;25.93;;;11.27;;
18647;SDS011;9453;50.294;18.644;2023-01-28T18:42:37;30.10;;;11.00;;
18647;SDS011;9453;50.294;18.644;2023-01-28T18:45:05;32.53;;;12.13;;
18647;SDS011;9453;50.294;18.644;2023-01-28T18:47:32;28.60;;;12.27;;
18647;SDS011;9453;50.294;18.644;2023-01-28T18:49:59;27.80;;;11.20;;
18647;SDS011;9453;50.294;18.644;2023-01-28T18:52:26;30.07;;;12.07;;
18647;SDS011;9453;50.294;18.644;2023-01-28T18:54:55;28.23;;;12.33;;
18647;SDS011;9453;50.294;18.644;2023-01-28T18:57:22;30.07;;;11.47;;
18647;SDS011;9453;50.294;18.644;2023-01-28T18:59:49;32.20;;;11.80;;
18647;SDS011;9453;50.294;18.644;2023-01-28T19:02:16;27.07;;;11.43;;
18647;SDS011;9453;50.294;18.644;2023-01-28T19:04:43;28.20;;;11.23;;
18647;SDS011;9453;50.294;18.644;2023-01-28T19:07:10;26.20;;;10.97;;
18647;SDS011;9453;50.294;18.644;2023-01-28T19:09:37;28.47;;;12.00;;
18647;SDS011;9453;50.294;18.644;2023-01-28T19:12:07;27.77;;;12.17;;
18647;SDS011;9453;50.294;18.644;2023-01-28T19:14:35;32.43;;;11.77;;
18647;SDS011;9453;50.294;18.644;2023-01-28T19:17:02;29.27;;;11.77;;
18647;SDS011;9453;50.294;18.644;2023-01-28T19:19:29;31.50;;;11.93;;
18647;SDS011;9453;50.294;18.644;2023-01-28T19:21:57;27.37;;;11.47;;
18647;SDS011;9453;50.294;18.644;2023-01-28T19:24:26;37.23;;;12.53;;
18647;SDS011;9453;50.294;18.644;2023-01-28T19:26:53;27.37;;;10.77;;
18647;SDS011;9453;50.294;18.644;2023-01-28T19:29:22;31.47;;;11.90;;
18647;SDS011;9453;50.294;18.644;2023-01-28T19:31:52;25.60;;;11.40;;
18647;SDS011;9453;50.294;18.644;2023-01-28T19:34:20;30.17;;;11.40;;
18647;SDS011;9453;50.294;18.644;2023-01-28T19:36:47;32.57;;;11.47;;
18647;SDS011;9453;50.294;18.644;2023-01-28T19:39:14;30.67;;;12.17;;
18647;SDS011;9453;50.294;18.644;2023-01-28T19:41:41;35.70;;;13.60;;
18647;SDS011;9453;50.294;18.644;2023-01-28T19:44:09;29.83;;;11.57;;
18647;SDS011;9453;50.294;18.644;2023-01-28T19:46:37;33.40;;;13.70;;
18647;SDS011;9453;50.294;18.644;2023-01-28T19:49:06;37.10;;;14.47;;
18647;SDS011;9453;50.294;18.644;2023-01-28T19:51:34;34.00;;;13.40;;
18647;SDS011;9453;50.294;18.644;2023-01-28T19:54:01;27.77;;;12.17;;
18647;SDS011;9453;50.294;18.644;2023-01-28T19:56:29;33.37;;;12.83;;
18647;SDS011;9453;50.294;18.644;2023-01-28T19:59:00;29.87;;;11.33;;
18647;SDS011;9453;50.294;18.644;2023-01-28T20:01:27;32.13;;;11.93;;
18647;SDS011;9453;50.294;18.644;2023-01-28T20:03:56;29.80;;;12.10;;
18647;SDS011;9453;50.294;18.644;2023-01-28T20:06:25;31.13;;;12.17;;
18647;SDS011;9453;50.294;18.644;2023-01-28T20:08:55;27.90;;;11.93;;
18647;SDS011;9453;50.294;18.644;2023-01-28T20:11:23;28.13;;;11.33;;
18647;SDS011;9453;50.294;18.644;2023-01-28T20:13:51;29.57;;;11.53;;